Time;durP1;ratioP1;P1;durP2;ratioP2;P2;SDS_P1;SDS_P2;PMS_P1;PMS_P2;Temp;Humidity;BMP_temperature;BMP_pressure;BME280_temperature;BME280_humidity;BME280_pressure;Samples;Min_cycle;Max_cycle;Signal;HPM_P1;HPM_P2
2022/06/11 00:00:10;;;;;;;13.23;6.65;;;;;;;14.97;100.00;101935.09;5212619;28;20267;-66
2022/06/11 00:02:42;;;;;;;10.85;6.22;;;;;;;14.91;100.00;101927.53;5210032;28;20121;-66
2022/06/11 00:05:14;;;;;;;10.73;6.15;;;;;;;14.93;100.00;101933.63;5212023;28;20116;-65
2022/06/11 00:07:46;;;;;;;10.65;5.93;;;;;;;14.89;100.00;101935.69;5211193;28;20368;-65
2022/06/11 00:10:17;;;;;;;10.65;6.13;;;;;;;14.82;100.00;101936.28;5206151;28;20032;-66
2022/06/11 00:12:48;;;;;;;8.43;6.20;;;;;;;14.77;100.00;101938.50;5210515;28;20104;-65
2022/06/11 00:15:20;;;;;;;10.02;6.28;;;;;;;14.85;100.00;101942.28;5209387;28;20581;-65
2022/06/11 00:17:52;;;;;;;8.55;5.75;;;;;;;14.70;100.00;101941.63;5209238;28;20028;-65
2022/06/11 00:20:26;;;;;;;10.93;6.50;;;;;;;14.67;100.00;101936.50;5212359;28;20040;-66
2022/06/11 00:22:58;;;;;;;10.00;6.22;;;;;;;14.73;100.00;101937.00;5210099;28;20927;-66
2022/06/11 00:25:32;;;;;;;8.93;5.82;;;;;;;14.60;100.00;101932.56;5209767;28;20148;-65
2022/06/11 00:28:04;;;;;;;11.07;6.03;;;;;;;14.61;100.00;101933.44;5210584;28;20035;-65
2022/06/11 00:30:36;;;;;;;9.15;5.85;;;;;;;14.57;100.00;101929.25;5209601;28;20060;-65
2022/06/11 00:33:08;;;;;;;8.68;5.68;;;;;;;14.49;100.00;101933.34;5210433;28;20069;-66
2022/06/11 00:35:41;;;;;;;8.27;5.80;;;;;;;14.57;100.00;101937.31;5209253;28;20399;-65
2022/06/11 00:38:13;;;;;;;10.02;5.70;;;;;;;14.46;100.00;101930.06;5210392;28;20025;-65
2022/06/11 00:40:47;;;;;;;9.50;5.35;;;;;;;14.52;100.00;101932.28;5212842;28;20409;-65
2022/06/11 00:43:22;;;;;;;10.30;6.20;;;;;;;14.48;100.00;101931.66;5212162;28;20030;-65
2022/06/11 00:46:00;;;;;;;10.55;5.95;;;;;;;14.36;100.00;101923.66;5209546;28;20164;-65
2022/06/11 00:48:37;;;;;;;9.88;6.60;;;;;;;14.35;100.00;101919.28;5208861;28;20045;-65
2022/06/11 00:51:22;;;;;;;9.85;6.57;;;;;;;14.30;100.00;101928.53;5208638;28;20088;-65
2022/06/11 00:53:59;;;;;;;10.23;6.75;;;;;;;14.30;100.00;101919.59;5212785;28;20029;-65
2022/06/11 00:56:40;;;;;;;11.88;6.72;;;;;;;14.32;100.00;101920.34;5208203;28;20382;-65
2022/06/11 00:59:17;;;;;;;9.77;6.57;;;;;;;14.28;100.00;101929.59;5207231;28;20042;-66
2022/06/11 01:01:48;;;;;;;9.70;5.97;;;;;;;14.28;100.00;101925.09;5206676;28;20844;-65
2022/06/11 01:04:41;;;;;;;10.35;6.63;;;;;;;14.28;100.00;101924.25;5209511;28;20033;-65
2022/06/11 01:07:24;;;;;;;8.82;6.07;;;;;;;14.24;100.00;101920.91;5210016;28;20092;-65
2022/06/11 01:10:25;;;;;;;8.68;6.07;;;;;;;14.28;100.00;101916.19;5207640;28;20091;-65
2022/06/11 01:13:35;;;;;;;8.88;5.18;;;;;;;14.24;100.00;101914.69;5209493;28;20038;-65
2022/06/11 01:16:19;;;;;;;8.55;5.70;;;;;;;14.18;100.00;101918.69;5208261;28;20077;-65
2022/06/11 01:18:59;;;;;;;7.50;5.67;;;;;;;14.12;100.00;101911.97;5205995;28;20240;-65
2022/06/11 01:21:45;;;;;;;8.32;5.80;;;;;;;14.14;100.00;101911.84;5210074;28;20039;-65
2022/06/11 01:24:28;;;;;;;9.93;7.03;;;;;;;14.17;100.00;101914.31;5210908;28;20026;-65
2022/06/11 01:27:33;;;;;;;10.43;6.53;;;;;;;14.15;100.00;101913.56;5211302;28;20294;-65
2022/06/11 01:30:07;;;;;;;9.02;6.32;;;;;;;14.13;100.00;101915.50;5209026;28;20025;-66
2022/06/11 01:32:49;;;;;;;9.98;6.63;;;;;;;14.16;100.00;101917.13;5207987;28;20063;-65
2022/06/11 01:36:09;;;;;;;11.20;6.68;;;;;;;14.08;100.00;101906.94;5208722;28;20444;-65
2022/06/11 01:38:53;;;;;;;9.80;6.85;;;;;;;14.06;100.00;101906.22;5209994;28;20130;-65
2022/06/11 01:41:36;;;;;;;12.35;7.45;;;;;;;14.03;100.00;101911.78;5213638;28;20037;-65
2022/06/11 01:44:35;;;;;;;9.70;6.72;;;;;;;14.07;100.00;101914.13;5214361;28;20036;-66
2022/06/11 01:47:10;;;;;;;9.60;6.78;;;;;;;13.97;100.00;101909.56;5212053;28;20038;-66
2022/06/11 01:49:43;;;;;;;;;;;;;;;14.07;100.00;101908.75;5214544;28;20072;-66
2022/06/11 01:52:43;;;;;;;10.73;7.07;;;;;;;14.00;100.00;101907.53;5214485;28;20276;-66
2022/06/11 01:55:30;;;;;;;11.68;7.05;;;;;;;13.91;100.00;101898.31;5211944;28;20022;-65
2022/06/11 01:58:19;;;;;;;10.27;6.80;;;;;;;14.01;100.00;101901.16;5212955;28;20033;-65
2022/06/11 02:00:50;;;;;;;10.93;7.35;;;;;;;13.86;100.00;101900.47;5213562;28;20065;-66
2022/06/11 02:03:37;;;;;;;10.57;7.07;;;;;;;13.84;100.00;101905.09;5213691;28;20562;-66
2022/06/11 02:06:30;;;;;;;10.32;7.40;;;;;;;13.88;100.00;101903.91;5214600;28;20408;-65
2022/06/11 02:09:02;;;;;;;12.00;6.40;;;;;;;13.85;100.00;101906.81;5215231;28;20034;-65
2022/06/11 02:11:41;;;;;;;11.07;7.65;;;;;;;13.88;100.00;101898.56;5215297;28;20037;-65
2022/06/11 02:14:44;;;;;;;10.88;6.78;;;;;;;13.85;100.00;101906.81;5213293;28;20037;-65
2022/06/11 02:17:22;;;;;;;9.25;6.95;;;;;;;13.81;100.00;101908.00;5216103;28;20033;-66
2022/06/11 02:20:03;;;;;;;11.02;6.63;;;;;;;13.76;100.00;101912.84;5212833;28;20407;-66
2022/06/11 02:22:44;;;;;;;9.65;6.25;;;;;;;13.77;100.00;101906.53;5214622;28;20034;-66
2022/06/11 02:25:34;;;;;;;13.23;7.15;;;;;;;13.68;100.00;101915.25;5213480;28;20025;-66
2022/06/11 02:28:11;;;;;;;9.73;6.32;;;;;;;13.64;100.00;101916.44;5215901;28;20057;-65
2022/06/11 02:30:45;;;;;;;8.45;6.20;;;;;;;13.63;100.00;101920.06;5215449;28;20018;-65
2022/06/11 02:33:18;;;;;;;9.55;6.13;;;;;;;13.59;100.00;101919.44;5215911;28;20472;-65
2022/06/11 02:35:50;;;;;;;9.88;6.55;;;;;;;13.53;100.00;101920.72;5211791;28;20041;-65
2022/06/11 02:38:24;;;;;;;11.00;6.43;;;;;;;13.49;100.00;101929.13;5212804;28;20521;-66
2022/06/11 02:41:02;;;;;;;9.13;6.40;;;;;;;13.53;100.00;101918.03;5212097;28;20073;-65
2022/06/11 02:43:33;;;;;;;10.52;6.07;;;;;;;13.49;100.00;101927.28;5212575;28;20041;-65
2022/06/11 02:48:57;;;;;;;10.02;6.65;;;;;;;13.50;100.00;101936.19;5215156;28;20038;-65
2022/06/11 02:51:30;;;;;;;11.13;6.75;;;;;;;13.49;100.00;101935.31;5211700;28;20030;-65
2022/06/11 02:54:03;;;;;;;9.15;6.75;;;;;;;13.44;100.00;101931.25;5215138;28;20041;-66
2022/06/11 02:56:34;;;;;;;13.45;6.80;;;;;;;13.36;100.00;101937.16;5210276;28;20120;-65
2022/06/11 02:59:06;;;;;;;9.02;6.10;;;;;;;13.39;100.00;101936.09;5211926;28;20104;-65
2022/06/11 03:01:37;;;;;;;9.43;6.25;;;;;;;13.36;100.00;101933.63;5210127;28;20095;-66
2022/06/11 03:04:10;;;;;;;9.18;6.63;;;;;;;13.30;100.00;101945.66;5211552;28;20038;-66
2022/06/11 03:06:43;;;;;;;9.95;6.70;;;;;;;13.37;100.00;101933.53;5209457;28;20091;-65
2022/06/11 03:09:19;;;;;;;9.73;5.85;;;;;;;13.27;100.00;101944.00;5206550;28;20038;-66
2022/06/11 03:11:51;;;;;;;8.77;5.90;;;;;;;13.29;100.00;101938.56;5206222;28;20038;-65
2022/06/11 03:14:22;;;;;;;8.63;5.88;;;;;;;13.43;100.00;101945.66;5208372;28;20030;-66
2022/06/11 03:16:54;;;;;;;7.88;6.13;;;;;;;13.49;100.00;101946.06;5209859;28;20034;-65
2022/06/11 03:19:25;;;;;;;11.18;6.32;;;;;;;13.46;100.00;101945.41;5210169;28;20124;-65
2022/06/11 03:21:57;;;;;;;8.57;6.35;;;;;;;13.59;100.00;101950.75;5208845;28;20087;-65
2022/06/11 03:24:28;;;;;;;7.50;5.90;;;;;;;13.55;100.00;101957.31;5209376;28;20021;-66
2022/06/11 03:27:00;;;;;;;9.35;6.30;;;;;;;13.61;100.00;101951.50;5208659;28;20030;-65
2022/06/11 03:29:31;;;;;;;9.32;6.20;;;;;;;13.79;100.00;101960.03;5210541;28;20421;-66
2022/06/11 03:32:03;;;;;;;8.90;5.97;;;;;;;13.81;100.00;101960.81;5208218;28;20492;-66
2022/06/11 03:34:35;;;;;;;8.20;5.95;;;;;;;13.85;100.00;101955.09;5209255;28;20053;-66
2022/06/11 03:37:06;;;;;;;9.15;5.50;;;;;;;13.77;100.00;101953.94;5209369;28;20495;-65
2022/06/11 03:39:38;;;;;;;7.80;5.25;;;;;;;13.80;100.00;101959.94;5207313;28;20026;-65
2022/06/11 03:42:11;;;;;;;8.10;5.13;;;;;;;13.82;100.00;101967.88;5210203;28;20096;-65
2022/06/11 03:44:42;;;;;;;10.02;5.32;;;;;;;13.91;100.00;101965.38;5207902;28;20029;-66
2022/06/11 03:47:13;;;;;;;7.28;5.68;;;;;;;13.98;100.00;101978.34;5207176;28;20026;-65
2022/06/11 03:49:45;;;;;;;8.38;5.63;;;;;;;14.00;100.00;101979.97;5208373;28;20029;-66
2022/06/11 03:52:16;;;;;;;10.07;5.30;;;;;;;14.01;100.00;101975.44;5207171;28;20399;-66
2022/06/11 03:54:47;;;;;;;8.80;5.00;;;;;;;14.13;100.00;101990.66;5206845;28;20522;-65
2022/06/11 03:57:19;;;;;;;9.13;5.38;;;;;;;14.22;100.00;101989.97;5210600;28;20053;-65
2022/06/11 03:59:50;;;;;;;6.97;5.20;;;;;;;14.15;100.00;101995.91;5208574;28;20518;-65
2022/06/11 04:02:22;;;;;;;8.35;4.80;;;;;;;14.18;100.00;101995.69;5209470;28;20488;-65
2022/06/11 04:04:53;;;;;;;6.55;5.07;;;;;;;14.23;100.00;101999.75;5209111;28;20064;-66
2022/06/11 04:07:25;;;;;;;7.30;5.03;;;;;;;14.30;100.00;102001.03;5209819;28;20025;-65
2022/06/11 04:09:57;;;;;;;7.00;4.30;;;;;;;14.31;100.00;101993.81;5208895;28;20084;-65
2022/06/11 04:12:28;;;;;;;6.05;4.18;;;;;;;14.33;100.00;101999.94;5212607;28;20120;-66
2022/06/11 04:15:00;;;;;;;7.90;4.63;;;;;;;14.38;100.00;101999.56;5211873;28;20026;-66
2022/06/11 04:17:32;;;;;;;6.90;4.78;;;;;;;14.42;100.00;102003.75;5210831;28;20038;-66
2022/06/11 04:20:04;;;;;;;7.35;4.60;;;;;;;14.48;100.00;102008.69;5209798;28;21230;-66
2022/06/11 04:22:36;;;;;;;7.45;4.22;;;;;;;14.53;100.00;102006.50;5214181;28;20075;-66
2022/06/11 04:25:10;;;;;;;8.68;4.40;;;;;;;14.57;100.00;102008.00;5207658;28;20052;-66
2022/06/11 04:27:42;;;;;;;7.50;3.97;;;;;;;14.61;100.00;102014.00;5206972;28;20091;-66
2022/06/11 04:30:14;;;;;;;7.90;4.35;;;;;;;14.61;100.00;102004.13;5205491;28;20029;-66
2022/06/11 04:32:45;;;;;;;8.55;4.55;;;;;;;14.65;100.00;102010.13;5211867;28;20045;-66
2022/06/11 04:35:17;;;;;;;6.68;4.05;;;;;;;14.73;100.00;102018.47;5207865;28;20034;-65
2022/06/11 04:37:49;;;;;;;7.90;4.43;;;;;;;14.76;100.00;102017.38;5206308;28;20030;-66
2022/06/11 04:40:20;;;;;;;9.85;4.47;;;;;;;14.81;100.00;102018.75;5211404;28;20400;-65
2022/06/11 04:42:51;;;;;;;5.88;4.13;;;;;;;14.89;100.00;102018.16;5210790;28;20033;-66
2022/06/11 04:45:23;;;;;;;5.90;4.10;;;;;;;14.94;100.00;102015.09;5213584;28;20460;-66
2022/06/11 04:47:54;;;;;;;7.53;4.05;;;;;;;14.94;100.00;102025.84;5213926;28;20034;-66
2022/06/11 04:50:26;;;;;;;9.25;4.07;;;;;;;15.01;100.00;102021.72;5210726;28;20526;-66
2022/06/11 04:52:57;;;;;;;7.50;4.10;;;;;;;15.08;100.00;102023.00;5208637;28;20760;-66
2022/06/11 04:55:28;;;;;;;7.13;4.38;;;;;;;15.03;100.00;102023.34;5212702;28;20053;-66
2022/06/11 04:58:00;;;;;;;8.82;3.97;;;;;;;15.05;100.00;102024.09;5205112;28;20048;-66
2022/06/11 05:00:32;;;;;;;7.20;4.00;;;;;;;15.13;100.00;102019.94;5206918;28;20540;-65
2022/06/11 05:03:03;;;;;;;8.68;3.97;;;;;;;15.19;100.00;102031.09;5207701;28;20045;-66
2022/06/11 05:05:36;;;;;;;10.20;4.18;;;;;;;15.25;100.00;102019.00;5213346;28;20061;-66
2022/06/11 05:08:08;;;;;;;8.85;3.97;;;;;;;15.33;100.00;102030.00;5208839;28;20040;-66
2022/06/11 05:10:41;;;;;;;8.48;4.07;;;;;;;15.44;100.00;102030.03;5208232;28;20522;-66
2022/06/11 05:13:13;;;;;;;9.20;3.83;;;;;;;15.43;100.00;102035.53;5212362;28;20054;-66
2022/06/11 05:15:51;;;;;;;11.27;4.63;;;;;;;15.45;100.00;102025.50;5212934;28;20465;-66
2022/06/11 05:18:23;;;;;;;8.70;4.10;;;;;;;15.51;100.00;102035.78;5204205;28;20041;-66
2022/06/11 05:20:54;;;;;;;8.18;4.20;;;;;;;15.57;100.00;102037.13;5213677;28;20072;-66
2022/06/11 05:23:26;;;;;;;7.50;3.85;;;;;;;15.58;100.00;102037.00;5213250;28;20065;-66
2022/06/11 05:25:58;;;;;;;7.53;3.80;;;;;;;15.62;100.00;102034.94;5210923;28;20560;-66
2022/06/11 05:28:31;;;;;;;7.20;3.30;;;;;;;15.71;100.00;102036.91;5207622;28;20302;-66
2022/06/11 05:31:03;;;;;;;8.90;3.50;;;;;;;15.70;100.00;102040.56;5209739;28;20446;-66
2022/06/11 05:33:35;;;;;;;9.60;3.45;;;;;;;15.70;100.00;102037.88;5207853;28;20038;-65
2022/06/11 05:36:07;;;;;;;8.10;3.60;;;;;;;15.68;99.50;102032.59;5212590;28;20022;-66
2022/06/11 05:38:38;;;;;;;9.02;3.15;;;;;;;15.65;100.00;102040.09;5208280;28;20041;-65
2022/06/11 05:41:10;;;;;;;9.38;2.90;;;;;;;15.61;97.71;102035.91;5209624;28;20045;-65
2022/06/11 05:43:44;;;;;;;10.05;2.85;;;;;;;15.62;96.90;102043.84;5211402;28;20112;-65
2022/06/11 05:46:20;;;;;;;8.23;3.10;;;;;;;15.72;99.72;102051.22;5210707;28;20030;-65
2022/06/11 05:48:58;;;;;;;9.02;2.60;;;;;;;15.77;100.00;102049.06;5208177;28;20847;-65
2022/06/11 05:51:35;;;;;;;7.38;2.65;;;;;;;15.72;95.29;102049.38;5209593;28;20034;-66
2022/06/11 05:54:10;;;;;;;8.40;2.67;;;;;;;15.75;95.46;102051.84;5205706;28;20388;-65
2022/06/11 05:56:42;;;;;;;11.15;3.00;;;;;;;15.82;91.44;102044.13;5208940;28;20499;-66
2022/06/11 05:59:19;;;;;;;12.35;3.55;;;;;;;15.89;93.40;102053.44;5207811;28;20033;-65
2022/06/11 06:01:53;;;;;;;12.25;2.83;;;;;;;15.90;90.73;102052.47;5206826;28;20030;-65
2022/06/11 06:04:24;;;;;;;11.15;3.00;;;;;;;15.99;89.81;102048.19;5209724;28;20034;-65
2022/06/11 06:06:55;;;;;;;13.25;3.33;;;;;;;16.01;88.83;102041.72;5210547;28;20033;-65
2022/06/11 06:09:27;;;;;;;10.25;3.17;;;;;;;16.14;90.11;102046.94;5208438;28;20045;-65
2022/06/11 06:11:58;;;;;;;11.32;3.28;;;;;;;16.25;94.32;102041.53;5204985;28;20125;-65
2022/06/11 06:14:30;;;;;;;11.57;3.58;;;;;;;16.22;89.24;102040.94;5205315;28;20038;-66
2022/06/11 06:17:02;;;;;;;14.88;3.55;;;;;;;16.36;87.43;102062.22;5205699;28;20144;-66
2022/06/11 06:19:33;;;;;;;14.02;3.50;;;;;;;16.27;87.98;102063.81;5210395;28;20034;-65
2022/06/11 06:22:05;;;;;;;10.85;2.80;;;;;;;16.25;85.02;102056.84;5205824;28;20033;-65
2022/06/11 06:24:37;;;;;;;12.23;3.25;;;;;;;16.27;85.82;102066.50;5203369;28;20034;-65
2022/06/11 06:27:08;;;;;;;11.20;3.22;;;;;;;16.34;84.33;102066.88;5204394;28;20124;-65
2022/06/11 06:29:39;;;;;;;12.35;3.63;;;;;;;16.43;88.46;102065.25;5208183;28;20038;-65
2022/06/11 06:32:10;;;;;;;15.18;3.22;;;;;;;16.63;85.49;102075.25;5214137;28;20104;-65
2022/06/11 06:34:42;;;;;;;13.23;3.53;;;;;;;16.78;86.57;102070.44;5212983;28;20037;-66
2022/06/11 06:37:13;;;;;;;21.02;4.63;;;;;;;16.94;84.24;102075.41;5211254;28;20026;-66
2022/06/11 06:39:45;;;;;;;11.35;3.20;;;;;;;17.14;84.38;102080.97;5210852;28;20105;-66
2022/06/11 06:42:17;;;;;;;8.90;2.88;;;;;;;17.20;82.94;102080.44;5209495;28;20397;-65
2022/06/11 06:44:48;;;;;;;17.55;4.25;;;;;;;17.15;80.88;102080.00;5209999;28;20105;-66
2022/06/11 06:47:19;;;;;;;11.23;3.33;;;;;;;17.25;83.48;102084.47;5213013;28;20047;-66
2022/06/11 06:49:51;;;;;;;12.95;3.45;;;;;;;17.25;87.06;102087.16;5209699;28;20443;-65
2022/06/11 06:52:23;;;;;;;15.15;4.18;;;;;;;17.22;79.20;102086.56;5211214;28;20506;-65
2022/06/11 06:54:54;;;;;;;14.50;4.00;;;;;;;17.20;80.98;102083.13;5211492;28;20387;-66
2022/06/11 06:57:25;;;;;;;14.13;3.63;;;;;;;17.04;81.24;102081.75;5208621;28;20344;-65
2022/06/11 06:59:58;;;;;;;17.27;3.88;;;;;;;17.02;81.11;102083.72;5217156;28;20109;-65
2022/06/11 07:02:30;;;;;;;14.93;3.67;;;;;;;17.10;80.77;102079.53;5213611;28;20034;-65
2022/06/11 07:05:02;;;;;;;13.88;4.00;;;;;;;17.07;83.52;102083.34;5210509;28;20029;-65
2022/06/11 07:07:35;;;;;;;15.23;3.92;;;;;;;17.04;82.34;102083.59;5208607;28;20068;-65
2022/06/11 07:10:08;;;;;;;16.80;4.32;;;;;;;17.16;82.89;102073.59;5208391;28;20030;-65
2022/06/11 07:12:40;;;;;;;14.25;3.70;;;;;;;17.45;81.62;102073.81;5205684;28;20038;-66
2022/06/11 07:15:11;;;;;;;14.48;3.30;;;;;;;17.62;83.42;102073.22;5212791;28;20506;-66
2022/06/11 07:17:48;;;;;;;16.30;3.95;;;;;;;17.62;79.43;102065.13;5212807;28;20050;-66
2022/06/11 07:20:23;;;;;;;16.48;4.18;;;;;;;17.75;79.79;102070.28;5207911;28;20041;-65
2022/06/11 07:23:03;;;;;;;15.25;4.20;;;;;;;17.98;80.73;102068.28;5212873;28;20080;-65
2022/06/11 07:25:34;;;;;;;12.70;3.70;;;;;;;18.18;79.95;102071.94;5217228;28;20030;-66
2022/06/11 07:28:13;;;;;;;18.63;4.53;;;;;;;18.34;76.13;102070.53;5214871;28;20416;-65
2022/06/11 07:30:45;;;;;;;13.93;3.78;;;;;;;18.26;78.44;102090.16;5212325;28;20330;-65
2022/06/11 07:33:21;;;;;;;17.58;4.30;;;;;;;18.51;77.38;102087.94;5215211;28;20033;-66
2022/06/11 07:35:53;;;;;;;13.90;3.95;;;;;;;18.65;76.48;102083.97;5214786;28;20121;-66
2022/06/11 07:38:24;;;;;;;14.43;3.80;;;;;;;18.53;75.72;102094.91;5212668;28;20030;-66
2022/06/11 07:40:56;;;;;;;15.77;3.80;;;;;;;18.56;76.21;102096.47;5212594;28;20088;-66
2022/06/11 07:43:27;;;;;;;15.35;4.38;;;;;;;18.55;77.49;102092.06;5215748;28;20455;-66
2022/06/11 07:45:59;;;;;;;19.80;4.28;;;;;;;18.58;76.52;102091.78;5212103;28;20447;-66
2022/06/11 07:48:30;;;;;;;16.58;4.85;;;;;;;18.57;75.75;102090.09;5210070;28;20411;-66
2022/06/11 07:51:02;;;;;;;17.88;4.05;;;;;;;18.63;76.93;102091.38;5215511;28;20025;-66
2022/06/11 07:53:33;;;;;;;13.75;3.60;;;;;;;18.60;77.75;102090.66;5213626;28;20108;-65
2022/06/11 07:56:05;;;;;;;13.82;3.95;;;;;;;18.72;81.00;102080.56;5216002;28;20188;-66
2022/06/11 07:58:37;;;;;;;14.50;3.92;;;;;;;18.66;76.03;102074.84;5212486;28;20026;-66
2022/06/11 08:01:08;;;;;;;18.23;4.68;;;;;;;18.64;77.13;102079.56;5215000;28;20019;-66
2022/06/11 08:03:40;;;;;;;12.23;4.03;;;;;;;18.65;77.52;102083.97;5212254;28;20040;-66
2022/06/11 08:06:12;;;;;;;14.82;3.97;;;;;;;18.62;79.30;102093.25;5214622;28;20029;-66
2022/06/11 08:08:45;;;;;;;18.73;3.90;;;;;;;18.61;79.18;102091.50;5212911;28;20483;-66
2022/06/11 08:11:17;;;;;;;15.77;4.15;;;;;;;18.75;78.21;102092.94;5213971;28;20380;-66
2022/06/11 08:13:48;;;;;;;14.63;4.65;;;;;;;18.85;79.11;102101.97;5212250;28;20349;-66
2022/06/11 08:16:19;;;;;;;13.65;4.57;;;;;;;18.96;78.31;102107.22;5211358;28;20030;-66
2022/06/11 08:18:51;;;;;;;15.98;4.50;;;;;;;18.91;74.87;102104.09;5210731;28;20054;-66
2022/06/11 08:21:22;;;;;;;14.70;4.13;;;;;;;19.18;75.90;102105.25;5213346;28;20064;-66
2022/06/11 08:23:54;;;;;;;14.82;3.88;;;;;;;19.18;79.02;102105.25;5210579;28;20029;-66
2022/06/11 08:26:25;;;;;;;15.73;4.40;;;;;;;19.16;76.92;102108.09;5214313;28;20099;-66
2022/06/11 08:28:56;;;;;;;14.43;3.47;;;;;;;19.05;72.86;102101.97;5208750;28;20036;-65
2022/06/11 08:31:27;;;;;;;17.70;4.60;;;;;;;19.05;75.68;102104.69;5217660;28;20049;-66
2022/06/11 08:33:59;;;;;;;15.88;4.82;;;;;;;19.06;77.44;102109.97;5212456;28;20057;-65
2022/06/11 08:36:30;;;;;;;18.45;4.20;;;;;;;19.14;78.74;102111.97;5212369;28;20092;-66
2022/06/11 08:39:02;;;;;;;18.17;3.97;;;;;;;19.46;75.87;102100.78;5209904;28;20385;-65
2022/06/11 08:41:35;;;;;;;15.25;4.30;;;;;;;19.61;74.33;102109.31;5209497;28;20083;-66
2022/06/11 08:44:10;;;;;;;17.15;4.32;;;;;;;19.96;74.42;102110.53;5212503;28;20034;-65
2022/06/11 08:46:44;;;;;;;16.95;3.95;;;;;;;20.12;73.83;102112.63;5210342;28;20387;-65
2022/06/11 08:49:21;;;;;;;;;;;;;;;20.46;74.39;102109.28;5212211;28;20033;-66
2022/06/11 08:51:58;;;;;;;14.93;3.38;;;;;;;20.46;69.07;102112.88;5209857;28;19968;-65
2022/06/11 08:54:34;;;;;;;13.20;3.45;;;;;;;20.37;67.07;102114.63;5207871;28;20709;-66
2022/06/11 08:57:27;;;;;;;17.02;4.05;;;;;;;20.49;68.40;102114.44;5209612;28;20030;-66
2022/06/11 08:59:58;;;;;;;14.40;3.60;;;;;;;20.52;70.43;102112.28;5212868;28;20068;-66
2022/06/11 09:02:47;;;;;;;19.67;3.80;;;;;;;20.59;67.24;102117.06;5209603;28;20411;-65
2022/06/11 09:05:34;;;;;;;17.33;4.00;;;;;;;20.49;67.49;102117.97;5212175;28;20065;-65
2022/06/11 09:08:24;;;;;;;16.27;4.28;;;;;;;20.65;72.54;102116.50;5211456;28;20029;-65
2022/06/11 09:11:04;;;;;;;16.83;4.50;;;;;;;20.65;68.16;102116.50;5211065;28;20400;-65
2022/06/11 09:13:38;;;;;;;16.52;3.90;;;;;;;20.53;66.44;102116.66;5210482;28;20056;-65
2022/06/11 09:16:32;;;;;;;13.45;3.63;;;;;;;20.66;70.01;102110.91;5214915;28;20476;-66
2022/06/11 09:19:19;;;;;;;18.48;4.20;;;;;;;20.44;67.34;102109.47;5212417;28;20573;-66
2022/06/11 09:22:36;;;;;;;18.00;4.13;;;;;;;20.66;69.62;102105.50;5214232;28;20531;-66
2022/06/11 09:25:29;;;;;;;13.30;3.53;;;;;;;20.67;68.01;102107.22;5212830;28;20069;-66
2022/06/11 09:28:37;;;;;;;18.70;4.45;;;;;;;20.68;69.01;102108.06;5212520;28;20522;-66
2022/06/11 09:31:31;;;;;;;13.75;4.15;;;;;;;20.76;68.37;102116.28;5207517;28;20084;-66
2022/06/11 09:34:10;;;;;;;16.48;3.80;;;;;;;20.59;66.73;102115.22;5210272;28;20538;-66
2022/06/11 09:36:49;;;;;;;22.27;4.32;;;;;;;20.31;67.52;102111.69;5213217;28;20510;-66
2022/06/11 09:39:38;;;;;;;14.57;3.38;;;;;;;20.30;67.17;102112.66;5212475;28;20384;-66
2022/06/11 09:42:27;;;;;;;16.70;4.35;;;;;;;20.24;69.39;102108.69;5214028;28;20042;-66
2022/06/11 09:45:08;;;;;;;16.13;4.47;;;;;;;20.09;65.42;102104.78;5213763;28;20033;-66
2022/06/11 09:47:48;;;;;;;15.68;3.70;;;;;;;20.13;66.34;102109.75;5212283;28;20073;-65
2022/06/11 09:50:27;;;;;;;16.55;4.03;;;;;;;20.27;67.70;102097.56;5212133;28;20026;-65
2022/06/11 09:53:36;;;;;;;17.23;4.43;;;;;;;20.25;68.03;102106.84;5213499;28;20076;-65
2022/06/11 09:56:19;;;;;;;11.25;2.83;;;;;;;20.37;63.06;102101.06;5212105;28;21370;-66
2022/06/11 09:59:06;;;;;;;13.25;3.65;;;;;;;20.57;63.95;102107.22;5210618;28;20824;-65
2022/06/11 10:01:50;;;;;;;11.90;3.35;;;;;;;20.58;63.22;102099.97;5212254;28;20033;-66
2022/06/11 10:04:28;;;;;;;12.90;3.20;;;;;;;20.75;59.04;102104.59;5212190;28;20101;-66
2022/06/11 10:07:06;;;;;;;11.75;2.95;;;;;;;20.71;60.75;102108.63;5212716;28;20746;-66
2022/06/11 10:09:52;;;;;;;17.13;3.72;;;;;;;20.80;58.05;102100.56;5215044;28;20387;-66
2022/06/11 10:12:30;;;;;;;10.35;3.28;;;;;;;21.06;61.50;102112.34;5216595;28;20463;-66
2022/06/11 10:15:19;;;;;;;15.77;3.60;;;;;;;21.21;61.84;102118.09;5212244;28;20049;-65
2022/06/11 10:18:01;;;;;;;11.98;3.38;;;;;;;21.07;60.88;102110.47;5214111;28;20391;-66
2022/06/11 10:20:37;;;;;;;12.13;3.10;;;;;;;21.13;59.11;102112.56;5214765;28;20124;-66
2022/06/11 10:23:22;;;;;;;12.27;3.00;;;;;;;21.11;61.53;102111.88;5217050;28;20032;-66
2022/06/11 10:26:03;;;;;;;13.65;2.97;;;;;;;20.92;59.74;102111.03;5211640;28;20088;-65
2022/06/11 10:28:49;;;;;;;12.20;2.72;;;;;;;20.94;61.97;102116.28;5215825;28;20022;-66
2022/06/11 10:31:39;;;;;;;10.50;2.83;;;;;;;20.86;58.61;102116.22;5214760;28;20038;-66
2022/06/11 10:34:21;;;;;;;11.35;2.70;;;;;;;20.84;56.92;102105.50;5212808;28;20037;-66
2022/06/11 10:37:10;;;;;;;12.50;2.65;;;;;;;21.00;60.08;102122.94;5213168;28;20384;-66
2022/06/11 10:40:05;;;;;;;11.20;3.05;;;;;;;21.04;58.64;102118.94;5214336;28;20044;-66
2022/06/11 10:42:50;;;;;;;9.98;3.97;;;;;;;21.08;57.61;102121.19;5212901;28;20037;-65
2022/06/11 10:45:22;;;;;;;9.85;2.40;;;;;;;21.18;57.13;102117.53;5214121;28;20484;-65
2022/06/11 10:47:57;;;;;;;12.25;3.47;;;;;;;21.08;58.80;102115.75;5213023;28;20056;-65
2022/06/11 10:50:34;;;;;;;14.70;3.28;;;;;;;20.99;57.24;102108.53;5212037;28;20378;-66
2022/06/11 10:53:25;;;;;;;10.32;2.80;;;;;;;21.08;60.47;102114.91;5213340;28;20443;-65
2022/06/11 10:56:05;;;;;;;13.30;3.28;;;;;;;21.08;57.94;102114.91;5211179;28;20392;-66
2022/06/11 10:58:51;;;;;;;13.63;3.25;;;;;;;21.09;57.79;102112.03;5212372;28;20037;-65
2022/06/11 11:01:25;;;;;;;14.60;3.92;;;;;;;21.09;59.82;102116.59;5214894;28;20513;-66
2022/06/11 11:03:57;;;;;;;15.50;3.55;;;;;;;21.09;60.44;102109.34;5209403;28;20479;-66
2022/06/11 11:06:32;;;;;;;12.07;3.45;;;;;;;21.17;60.88;102108.56;5211027;28;20026;-66
2022/06/11 11:09:14;;;;;;;12.40;4.20;;;;;;;;;;5210198;28;20533;-66
2022/06/11 11:11:52;;;;;;;12.90;3.58;;;;;;;21.48;61.22;102100.00;5210409;28;20030;-66
2022/06/11 11:14:40;;;;;;;14.02;4.00;;;;;;;21.45;60.07;102101.16;5213129;28;20669;-66
2022/06/11 11:17:20;;;;;;;12.57;3.22;;;;;;;21.48;58.58;102100.84;5212614;28;20033;-66
2022/06/11 11:22:54;;;;;;;13.15;3.92;;;;;;;21.77;60.24;102094.25;5211204;28;20038;-66
2022/06/11 11:25:33;;;;;;;11.52;3.67;;;;;;;21.71;59.78;102101.16;5209852;28;20034;-66
2022/06/11 11:28:06;;;;;;;15.55;5.15;;;;;;;21.50;58.93;102087.13;5212248;28;20330;-66
2022/06/11 11:30:38;;;;;;;;;;;;;;;21.62;58.98;102091.25;5208649;28;20034;-66
2022/06/11 11:33:29;;;;;;;11.55;3.50;;;;;;;21.64;60.61;102089.22;5212635;28;19959;-67
2022/06/11 11:36:12;;;;;;;12.00;3.90;;;;;;;21.63;60.35;102092.97;5213469;28;20034;-66
2022/06/11 11:38:44;;;;;;;11.90;3.75;;;;;;;21.63;61.09;102095.69;5211835;28;20084;-66
2022/06/11 11:41:25;;;;;;;13.77;4.18;;;;;;;21.51;59.12;102089.66;5207227;28;20061;-66
2022/06/11 11:43:58;;;;;;;14.35;4.40;;;;;;;21.64;58.25;102088.38;5212526;28;20034;-67
2022/06/11 11:46:35;;;;;;;12.77;3.80;;;;;;;21.74;61.61;102086.41;5212131;28;20073;-67
2022/06/11 11:49:06;;;;;;;15.73;4.85;;;;;;;21.97;60.51;102086.69;5211530;28;20133;-66
2022/06/11 11:51:40;;;;;;;11.65;3.70;;;;;;;22.10;59.06;102092.53;5212772;28;20100;-66
2022/06/11 11:54:18;;;;;;;13.55;3.85;;;;;;;22.23;59.70;102089.38;5212992;28;20435;-66
2022/06/11 11:56:56;;;;;;;16.52;4.47;;;;;;;22.36;58.79;102078.06;5208343;28;20117;-66
2022/06/11 11:59:56;;;;;;;12.95;3.58;;;;;;;22.46;60.01;102083.38;5211708;28;20022;-67
2022/06/11 12:02:42;;;;;;;13.77;3.53;;;;;;;22.81;58.16;102082.25;5202038;28;20381;-67
2022/06/11 12:05:25;;;;;;;15.10;4.25;;;;;;;22.85;57.82;102080.03;5205047;28;20030;-67